createdAt,value
2019-02-09T00:00:34.316Z,996.93
2019-02-09T00:01:34.282Z,997.02
2019-02-09T00:02:34.273Z,996.95
2019-02-09T00:03:34.259Z,996.92
2019-02-09T00:04:34.249Z,996.91
2019-02-09T00:05:34.262Z,996.94
2019-02-09T00:06:34.227Z,996.97
2019-02-09T00:07:34.216Z,997.01
2019-02-09T00:08:34.210Z,996.91
2019-02-09T00:09:34.193Z,996.86
2019-02-09T00:10:34.205Z,996.77
2019-02-09T00:11:34.170Z,996.74
2019-02-09T00:12:34.158Z,996.84
2019-02-09T00:13:34.150Z,996.86
2019-02-09T00:14:34.138Z,996.83
2019-02-09T00:15:34.151Z,996.84
2019-02-09T00:16:34.115Z,996.86
2019-02-09T00:17:34.104Z,996.82
2019-02-09T00:18:34.094Z,996.82
2019-02-09T00:19:34.081Z,996.79
2019-02-09T00:20:34.096Z,996.85
2019-02-09T00:21:34.059Z,996.87
2019-02-09T00:22:34.057Z,996.85
2019-02-09T00:23:34.036Z,996.86
2019-02-09T00:24:34.025Z,996.83
2019-02-09T00:25:34.037Z,996.74
2019-02-09T00:26:34.004Z,996.84
2019-02-09T00:27:33.992Z,996.67
2019-02-09T00:28:33.981Z,996.73
2019-02-09T00:29:33.971Z,996.68
2019-02-09T00:30:33.982Z,996.72
2019-02-09T00:31:33.948Z,996.71
2019-02-09T00:32:33.936Z,996.63
2019-02-09T00:33:33.925Z,996.66
2019-02-09T00:34:33.916Z,996.70
2019-02-09T00:35:33.930Z,996.59
2019-02-09T00:36:33.916Z,996.54
2019-02-09T00:37:33.881Z,996.67
2019-02-09T00:38:33.870Z,996.68
2019-02-09T00:39:33.858Z,996.54
2019-02-09T00:40:33.870Z,996.51
2019-02-09T00:41:33.838Z,996.61
2019-02-09T00:42:33.824Z,996.58
2019-02-09T00:43:33.813Z,996.56
2019-02-09T00:44:33.809Z,996.57
2019-02-09T00:45:33.816Z,996.47
2019-02-09T00:46:33.782Z,996.52
2019-02-09T00:47:33.775Z,996.53
2019-02-09T00:48:33.758Z,996.51
2019-02-09T00:49:33.752Z,996.43
2019-02-09T00:50:33.760Z,996.34
2019-02-09T00:51:33.725Z,996.41
2019-02-09T00:52:33.713Z,996.43
2019-02-09T00:53:33.704Z,996.46
2019-02-09T00:54:33.691Z,996.49
2019-02-09T00:55:33.702Z,996.45
2019-02-09T00:56:33.668Z,996.30
2019-02-09T00:57:33.661Z,996.38
2019-02-09T00:58:33.646Z,996.34
2019-02-09T00:59:33.636Z,996.46
2019-02-09T01:00:33.652Z,996.42
2019-02-09T01:01:33.666Z,996.28
2019-02-09T01:02:33.606Z,996.17
2019-02-09T01:03:33.596Z,996.43
2019-02-09T01:04:33.579Z,996.57
2019-02-09T01:05:33.594Z,996.39
2019-02-09T01:06:33.557Z,996.17
2019-02-09T01:07:33.546Z,996.09
2019-02-09T01:08:33.535Z,996.17
2019-02-09T01:09:33.524Z,996.21
2019-02-09T01:10:33.515Z,996.16
2019-02-09T01:11:33.527Z,996.03
2019-02-09T01:12:33.491Z,996.01
2019-02-09T01:13:33.478Z,996.05
2019-02-09T01:14:33.469Z,996.02
2019-02-09T01:15:33.459Z,996.05
2019-02-09T01:16:33.470Z,995.97
2019-02-09T01:17:33.435Z,995.98
2019-02-09T01:18:33.423Z,996.01
2019-02-09T01:19:33.413Z,995.91
2019-02-09T01:20:33.406Z,995.98
2019-02-09T01:21:33.415Z,995.78
2019-02-09T01:22:33.379Z,995.87
2019-02-09T01:23:33.368Z,995.92
2019-02-09T01:24:33.358Z,995.93
2019-02-09T01:25:33.363Z,995.75
2019-02-09T01:26:33.359Z,995.86
2019-02-09T01:27:33.324Z,995.87
2019-02-09T01:28:33.317Z,995.70
2019-02-09T01:29:33.304Z,995.88
2019-02-09T01:30:33.290Z,995.93
2019-02-09T01:31:33.305Z,995.96
2019-02-09T01:32:33.268Z,995.92
2019-02-09T01:33:33.257Z,995.79
2019-02-09T01:34:33.246Z,995.79
2019-02-09T01:35:33.243Z,995.94
2019-02-09T01:36:33.248Z,995.86
2019-02-09T01:37:33.213Z,995.79
2019-02-09T01:38:33.203Z,995.75
2019-02-09T01:39:33.190Z,995.74
2019-02-09T01:40:33.179Z,995.84
2019-02-09T01:41:33.197Z,995.83
2019-02-09T01:42:33.158Z,995.76
2019-02-09T01:43:33.146Z,995.86
2019-02-09T01:44:33.136Z,995.74
2019-02-09T01:45:33.126Z,995.75
2019-02-09T01:46:33.138Z,995.84
2019-02-09T01:47:33.103Z,995.71
2019-02-09T01:48:33.093Z,995.63
2019-02-09T01:49:33.080Z,995.82
2019-02-09T01:50:33.068Z,995.79
2019-02-09T01:51:33.082Z,995.69
2019-02-09T01:52:33.047Z,995.76
2019-02-09T01:53:33.035Z,995.77
2019-02-09T01:54:33.024Z,995.78
2019-02-09T01:55:33.015Z,995.95
2019-02-09T01:56:33.026Z,995.92
2019-02-09T01:57:32.993Z,995.89
2019-02-09T01:58:32.980Z,995.80
2019-02-09T01:59:32.968Z,995.89
2019-02-09T02:00:32.964Z,995.84
2019-02-09T02:01:32.970Z,995.65
2019-02-09T02:02:32.934Z,995.74
2019-02-09T02:03:32.924Z,995.81
2019-02-09T02:04:32.916Z,995.71
2019-02-09T02:05:32.903Z,995.63
2019-02-09T02:06:32.913Z,995.75
2019-02-09T02:07:32.881Z,995.62
2019-02-09T02:08:32.869Z,995.45
2019-02-09T02:09:32.856Z,995.39
2019-02-09T02:10:32.848Z,995.48
2019-02-09T02:11:32.860Z,995.48
2019-02-09T02:12:32.823Z,995.43
2019-02-09T02:13:32.812Z,995.46
2019-02-09T02:14:32.803Z,995.45
2019-02-09T02:15:32.790Z,995.37
2019-02-09T02:16:32.803Z,995.44
2019-02-09T02:17:32.769Z,995.50
2019-02-09T02:18:32.756Z,995.45
2019-02-09T02:19:32.746Z,995.45
2019-02-09T02:20:32.736Z,995.44
2019-02-09T02:21:32.748Z,995.48
2019-02-09T02:22:32.715Z,995.50
2019-02-09T02:23:32.705Z,995.58
2019-02-09T02:24:32.692Z,995.54
2019-02-09T02:25:32.680Z,995.48
2019-02-09T02:26:32.695Z,995.45
2019-02-09T02:27:32.658Z,995.51
2019-02-09T02:28:32.647Z,995.54
2019-02-09T02:29:32.635Z,995.54
2019-02-09T02:30:32.625Z,995.61
2019-02-09T02:31:32.637Z,995.57
2019-02-09T02:32:32.603Z,995.57
2019-02-09T02:33:32.592Z,995.54
2019-02-09T02:34:32.581Z,995.54
2019-02-09T02:35:32.569Z,995.63
2019-02-09T02:36:32.580Z,995.57
2019-02-09T02:37:32.551Z,995.51
2019-02-09T02:38:32.536Z,995.56
2019-02-09T02:39:32.523Z,995.57
2019-02-09T02:40:32.517Z,995.56
2019-02-09T02:41:32.510Z,995.60
2019-02-09T02:42:32.514Z,995.64
2019-02-09T02:43:32.486Z,995.67
2019-02-09T02:44:32.469Z,995.71
2019-02-09T02:45:32.458Z,995.73
2019-02-09T02:46:32.447Z,995.77
2019-02-09T02:47:32.458Z,995.89
2019-02-09T02:48:32.423Z,995.88
2019-02-09T02:49:32.413Z,995.97
2019-02-09T02:50:32.405Z,996.09
2019-02-09T02:51:32.392Z,996.13
2019-02-09T02:52:32.402Z,996.19
2019-02-09T02:53:32.368Z,996.21
2019-02-09T02:54:32.363Z,996.14
2019-02-09T02:55:32.355Z,996.16
2019-02-09T02:56:32.335Z,996.24
2019-02-09T02:57:32.347Z,996.26
2019-02-09T02:58:32.313Z,996.25
2019-02-09T02:59:32.303Z,996.25
2019-02-09T03:00:33.082Z,996.25
2019-02-09T03:01:32.281Z,996.31
2019-02-09T03:02:32.296Z,996.40
2019-02-09T03:03:32.260Z,996.26
2019-02-09T03:04:32.250Z,996.37
2019-02-09T03:05:32.235Z,996.27
2019-02-09T03:06:32.225Z,996.26
2019-02-09T03:07:32.238Z,996.24
2019-02-09T03:08:32.205Z,996.33
2019-02-09T03:09:32.190Z,996.31
2019-02-09T03:10:32.182Z,996.28
2019-02-09T03:11:32.168Z,996.15
2019-02-09T03:12:32.181Z,996.05
2019-02-09T03:13:32.146Z,995.96
2019-02-09T03:14:32.135Z,995.91
2019-02-09T03:15:32.123Z,995.83
2019-02-09T03:16:32.113Z,995.73
2019-02-09T03:17:32.130Z,995.64
2019-02-09T03:18:32.091Z,995.67
2019-02-09T03:19:32.080Z,995.68
2019-02-09T03:20:32.073Z,995.85
2019-02-09T03:21:32.057Z,995.88
2019-02-09T03:22:32.070Z,995.93
2019-02-09T03:23:32.036Z,995.90
2019-02-09T03:24:32.028Z,995.82
2019-02-09T03:25:32.013Z,995.88
2019-02-09T03:26:32.003Z,995.90
2019-02-09T03:27:32.021Z,995.94
2019-02-09T03:28:31.981Z,995.96
2019-02-09T03:29:31.970Z,995.96
2019-02-09T03:30:45.919Z,995.96
2019-02-09T03:31:32.948Z,995.96
2019-02-09T03:32:31.962Z,996.01
2019-02-09T03:33:31.925Z,996.03
2019-02-09T03:34:31.914Z,996.02
2019-02-09T03:35:31.904Z,996.07
2019-02-09T03:36:31.893Z,996.09
2019-02-09T03:37:31.904Z,996.12
2019-02-09T03:38:31.870Z,996.13
2019-02-09T03:39:31.859Z,996.18
2019-02-09T03:40:31.851Z,996.15
2019-02-09T03:41:31.837Z,996.19
2019-02-09T03:42:31.827Z,996.11
2019-02-09T03:43:31.838Z,996.32
2019-02-09T03:44:31.809Z,996.23
2019-02-09T03:45:31.817Z,996.20
2019-02-09T03:46:31.781Z,996.28
2019-02-09T03:47:31.774Z,996.33
2019-02-09T03:48:31.786Z,996.37
2019-02-09T03:49:31.747Z,996.46
2019-02-09T03:50:31.737Z,996.44
2019-02-09T03:51:31.728Z,996.46
2019-02-09T03:52:31.714Z,996.46
2019-02-09T03:53:31.728Z,996.42
2019-02-09T03:54:31.694Z,996.41
2019-02-09T03:55:31.683Z,996.47
2019-02-09T03:56:31.670Z,996.48
2019-02-09T03:57:31.665Z,996.49
2019-02-09T03:58:31.672Z,996.50
2019-02-09T03:59:31.637Z,996.57
2019-02-09T04:00:31.636Z,996.56
2019-02-09T04:01:31.618Z,996.51
2019-02-09T04:02:31.605Z,996.62
2019-02-09T04:03:31.615Z,996.52
2019-02-09T04:04:31.581Z,996.58
2019-02-09T04:05:31.569Z,996.54
2019-02-09T04:06:31.559Z,996.54
2019-02-09T04:07:31.582Z,996.57
2019-02-09T04:08:31.560Z,996.56
2019-02-09T04:09:31.525Z,996.56
2019-02-09T04:10:31.517Z,996.57
2019-02-09T04:11:31.505Z,996.50
2019-02-09T04:12:31.493Z,996.52
2019-02-09T04:13:31.506Z,996.52
2019-02-09T04:14:31.470Z,996.56
2019-02-09T04:15:31.462Z,996.65
2019-02-09T04:16:31.449Z,996.60
2019-02-09T04:17:31.439Z,996.57
2019-02-09T04:18:31.450Z,996.49
2019-02-09T04:19:31.415Z,996.67
2019-02-09T04:20:31.405Z,996.68
2019-02-09T04:21:31.394Z,996.70
2019-02-09T04:22:31.383Z,996.78
2019-02-09T04:23:31.373Z,996.82
2019-02-09T04:24:31.383Z,996.82
2019-02-09T04:25:31.349Z,996.85
2019-02-09T04:26:31.337Z,996.82
2019-02-09T04:27:31.326Z,996.85
2019-02-09T04:28:31.319Z,996.92
2019-02-09T04:29:31.331Z,996.85
2019-02-09T04:30:31.296Z,996.87
2019-02-09T04:31:31.281Z,996.91
2019-02-09T04:32:31.272Z,996.92
2019-02-09T04:33:31.263Z,996.87
2019-02-09T04:34:31.277Z,996.87
2019-02-09T04:35:31.238Z,996.83
2019-02-09T04:36:31.228Z,996.84
2019-02-09T04:37:31.215Z,996.89
2019-02-09T04:38:31.212Z,996.79
2019-02-09T04:39:31.217Z,996.81
2019-02-09T04:40:31.184Z,996.79
2019-02-09T04:41:31.172Z,996.75
2019-02-09T04:42:31.161Z,996.83
2019-02-09T04:43:31.149Z,996.94
2019-02-09T04:44:31.163Z,997.00
2019-02-09T04:45:31.127Z,997.01
2019-02-09T04:46:31.119Z,997.05
2019-02-09T04:47:31.108Z,996.98
2019-02-09T04:48:31.095Z,997.07
2019-02-09T04:49:31.109Z,997.14
2019-02-09T04:50:31.072Z,997.14
2019-02-09T04:51:31.063Z,997.14
2019-02-09T04:52:31.052Z,997.21
2019-02-09T04:53:31.037Z,997.24
2019-02-09T04:54:31.054Z,997.26
2019-02-09T04:55:31.045Z,997.26
2019-02-09T04:56:31.005Z,997.25
2019-02-09T04:57:30.995Z,997.33
2019-02-09T04:58:30.984Z,997.30
2019-02-09T04:59:30.997Z,997.39
2019-02-09T05:00:30.962Z,997.31
2019-02-09T05:01:30.950Z,997.39
2019-02-09T05:02:30.940Z,997.42
2019-02-09T05:03:30.931Z,997.52
2019-02-09T05:04:30.944Z,997.55
2019-02-09T05:05:30.905Z,997.51
2019-02-09T05:06:30.894Z,997.54
2019-02-09T05:07:30.884Z,997.55
2019-02-09T05:08:30.873Z,997.65
2019-02-09T05:09:30.885Z,997.62
2019-02-09T05:10:30.851Z,997.58
2019-02-09T05:11:30.840Z,997.65
2019-02-09T05:12:30.829Z,997.64
2019-02-09T05:13:30.820Z,997.67
2019-02-09T05:14:30.832Z,997.72
2019-02-09T05:15:30.794Z,997.69
2019-02-09T05:16:30.790Z,997.68
2019-02-09T05:17:30.774Z,997.75
2019-02-09T05:18:30.761Z,997.77
2019-02-09T05:19:30.752Z,997.77
2019-02-09T05:20:30.763Z,997.69
2019-02-09T05:21:30.729Z,997.80
2019-02-09T05:22:30.719Z,997.72
2019-02-09T05:23:30.706Z,997.75
2019-02-09T05:24:30.698Z,997.83
2019-02-09T05:25:30.708Z,997.72
2019-02-09T05:26:30.674Z,997.76
2019-02-09T05:27:30.668Z,997.68
2019-02-09T05:28:30.659Z,997.71
2019-02-09T05:29:30.642Z,997.69
2019-02-09T05:30:30.652Z,997.76
2019-02-09T05:31:30.620Z,997.77
2019-02-09T05:32:30.607Z,997.94
2019-02-09T05:33:30.601Z,997.84
2019-02-09T05:34:30.584Z,997.91
2019-02-09T05:35:30.600Z,997.92
2019-02-09T05:36:30.563Z,997.82
2019-02-09T05:37:30.551Z,997.80
2019-02-09T05:38:30.549Z,997.76
2019-02-09T05:39:30.529Z,997.80
2019-02-09T05:40:30.541Z,997.79
2019-02-09T05:41:30.506Z,997.81
2019-02-09T05:42:30.496Z,997.81
2019-02-09T05:43:30.485Z,997.83
2019-02-09T05:44:30.473Z,997.85
2019-02-09T05:45:30.487Z,997.80
2019-02-09T05:46:30.453Z,997.83
2019-02-09T05:47:30.441Z,997.83
2019-02-09T05:48:30.429Z,997.85
2019-02-09T05:49:30.421Z,997.82
2019-02-09T05:50:30.430Z,997.87
2019-02-09T05:51:30.396Z,997.82
2019-02-09T05:52:30.386Z,997.83
2019-02-09T05:53:30.388Z,997.88
2019-02-09T05:54:30.362Z,997.92
2019-02-09T05:55:30.375Z,998.02
2019-02-09T05:56:30.342Z,998.02
2019-02-09T05:57:30.338Z,998.07
2019-02-09T05:58:30.325Z,998.02
2019-02-09T05:59:30.307Z,998.13
2019-02-09T06:00:30.322Z,998.12
2019-02-09T06:01:32.052Z,998.07
2019-02-09T06:02:30.273Z,998.09
2019-02-09T06:03:30.266Z,998.10
2019-02-09T06:04:30.251Z,998.14
2019-02-09T06:05:30.284Z,998.11
2019-02-09T06:06:30.232Z,998.12
2019-02-09T06:07:30.219Z,998.13
2019-02-09T06:08:30.208Z,998.14
2019-02-09T06:09:30.198Z,998.14
2019-02-09T06:10:30.207Z,998.12
2019-02-09T06:11:30.174Z,998.14
2019-02-09T06:12:30.163Z,998.13
2019-02-09T06:13:30.153Z,998.06
2019-02-09T06:14:30.141Z,998.23
2019-02-09T06:15:30.136Z,998.22
2019-02-09T06:16:30.873Z,998.18
2019-02-09T06:17:30.108Z,998.34
2019-02-09T06:18:30.097Z,998.19
2019-02-09T06:19:30.086Z,998.15
2019-02-09T06:20:30.076Z,998.26
2019-02-09T06:21:30.088Z,998.30
2019-02-09T06:22:30.052Z,998.34
2019-02-09T06:23:30.041Z,998.31
2019-02-09T06:24:30.031Z,998.35
2019-02-09T06:25:30.031Z,998.38
2019-02-09T06:26:30.034Z,998.47
2019-02-09T06:27:29.997Z,998.53
2019-02-09T06:28:29.987Z,998.49
2019-02-09T06:29:29.976Z,998.44
2019-02-09T06:30:29.964Z,998.60
2019-02-09T06:31:29.977Z,998.65
2019-02-09T06:32:29.942Z,998.58
2019-02-09T06:33:29.932Z,998.58
2019-02-09T06:34:29.920Z,998.63
2019-02-09T06:35:29.921Z,998.57
2019-02-09T06:36:29.922Z,998.61
2019-02-09T06:37:29.887Z,998.64
2019-02-09T06:38:29.876Z,998.62
2019-02-09T06:39:29.863Z,998.67
2019-02-09T06:40:29.855Z,998.66
2019-02-09T06:41:29.866Z,998.70
2019-02-09T06:42:29.832Z,998.65
2019-02-09T06:43:29.836Z,998.67
2019-02-09T06:44:29.811Z,998.74
2019-02-09T06:45:29.797Z,998.68
2019-02-09T06:46:29.810Z,998.76
2019-02-09T06:47:29.776Z,998.79
2019-02-09T06:48:29.763Z,998.81
2019-02-09T06:49:29.753Z,998.74
2019-02-09T06:50:29.742Z,998.76
2019-02-09T06:51:29.754Z,998.92
2019-02-09T06:52:29.721Z,998.86
2019-02-09T06:53:29.709Z,998.86
2019-02-09T06:54:29.698Z,998.85
2019-02-09T06:55:29.737Z,998.85
2019-02-09T06:56:29.700Z,998.91
2019-02-09T06:57:29.666Z,998.85
2019-02-09T06:58:29.653Z,998.88
2019-02-09T06:59:29.643Z,998.96
2019-02-09T07:00:29.631Z,999.03
2019-02-09T07:01:29.645Z,998.95
2019-02-09T07:02:29.610Z,999.01
2019-02-09T07:03:29.599Z,998.99
2019-02-09T07:04:29.588Z,998.98
2019-02-09T07:05:29.577Z,999.02
2019-02-09T07:06:29.588Z,998.97
2019-02-09T07:07:29.553Z,998.99
2019-02-09T07:08:29.543Z,998.99
2019-02-09T07:09:29.535Z,999.07
2019-02-09T07:10:29.523Z,999.02
2019-02-09T07:11:29.511Z,999.07
2019-02-09T07:12:29.522Z,999.18
2019-02-09T07:13:29.487Z,999.15
2019-02-09T07:14:29.476Z,999.17
2019-02-09T07:15:29.466Z,999.18
2019-02-09T07:16:29.457Z,999.25
2019-02-09T07:17:29.467Z,999.30
2019-02-09T07:18:29.432Z,999.24
2019-02-09T07:19:29.424Z,999.24
2019-02-09T07:20:29.411Z,999.28
2019-02-09T07:21:29.399Z,999.22
2019-02-09T07:22:29.411Z,999.27
2019-02-09T07:23:29.378Z,999.27
2019-02-09T07:24:29.367Z,999.28
2019-02-09T07:25:29.355Z,999.27
2019-02-09T07:26:29.344Z,999.22
2019-02-09T07:27:29.358Z,999.29
2019-02-09T07:28:29.325Z,999.28
2019-02-09T07:29:29.310Z,999.37
2019-02-09T07:30:29.301Z,999.25
2019-02-09T07:31:29.288Z,999.30
2019-02-09T07:32:29.300Z,999.32
2019-02-09T07:33:29.281Z,999.29
2019-02-09T07:34:29.256Z,999.38
2019-02-09T07:35:29.245Z,999.36
2019-02-09T07:36:29.233Z,999.34
2019-02-09T07:37:29.249Z,999.38
2019-02-09T07:38:29.212Z,999.49
2019-02-09T07:39:29.219Z,999.47
2019-02-09T07:40:29.189Z,999.53
2019-02-09T07:41:29.177Z,999.49
2019-02-09T07:42:29.190Z,999.52
2019-02-09T07:43:29.155Z,999.54
2019-02-09T07:44:29.144Z,999.54
2019-02-09T07:45:29.133Z,999.53
2019-02-09T07:46:29.131Z,999.58
2019-02-09T07:47:29.134Z,999.55
2019-02-09T07:48:29.100Z,999.60
2019-02-09T07:49:29.090Z,999.70
2019-02-09T07:50:29.080Z,999.73
2019-02-09T07:51:29.068Z,999.75
2019-02-09T07:52:29.080Z,999.72
2019-02-09T07:53:29.047Z,999.80
2019-02-09T07:54:29.033Z,999.77
2019-02-09T07:55:29.026Z,999.71
2019-02-09T07:56:29.011Z,999.67
2019-02-09T07:57:29.024Z,999.72
2019-02-09T07:58:28.992Z,999.73
2019-02-09T07:59:28.978Z,999.75
2019-02-09T08:00:28.967Z,999.78
2019-02-09T08:01:28.957Z,999.78
2019-02-09T08:02:28.969Z,999.80
2019-02-09T08:03:28.934Z,999.88
2019-02-09T08:04:28.925Z,999.81
2019-02-09T08:05:28.913Z,999.86
2019-02-09T08:06:28.900Z,999.95
2019-02-09T08:07:28.891Z,999.99
2019-02-09T08:08:28.901Z,999.90
2019-02-09T08:09:28.867Z,1000.08
2019-02-09T08:10:28.856Z,999.93
2019-02-09T08:11:28.849Z,999.99
2019-02-09T08:12:28.837Z,999.98
2019-02-09T08:13:28.847Z,1000.04
2019-02-09T08:14:28.812Z,1000.09
2019-02-09T08:15:28.800Z,999.96
2019-02-09T08:16:28.791Z,999.96
2019-02-09T08:17:28.778Z,1000.14
2019-02-09T08:18:28.790Z,1000.04
2019-02-09T08:19:28.757Z,999.99
2019-02-09T08:20:28.749Z,1000.05
2019-02-09T08:21:28.734Z,1000.06
2019-02-09T08:22:28.725Z,999.99
2019-02-09T08:23:28.736Z,1000.12
2019-02-09T08:24:28.701Z,1000.04
2019-02-09T08:25:28.689Z,1000.04
2019-02-09T08:26:28.682Z,1000.14
2019-02-09T08:27:28.670Z,1000.22
2019-02-09T08:28:28.680Z,1000.13
2019-02-09T08:29:28.647Z,1000.19
2019-02-09T08:30:28.634Z,1000.16
2019-02-09T08:31:28.624Z,1000.12
2019-02-09T08:32:28.612Z,1000.09
2019-02-09T08:33:28.625Z,1000.16
2019-02-09T08:34:28.590Z,1000.18
2019-02-09T08:35:28.579Z,1000.35
2019-02-09T08:36:28.567Z,1000.23
2019-02-09T08:37:28.559Z,1000.17
2019-02-09T08:38:28.573Z,1000.28
2019-02-09T08:39:28.535Z,1000.26
2019-02-09T08:40:28.525Z,1000.27
2019-02-09T08:41:28.513Z,1000.26
2019-02-09T08:42:28.503Z,1000.31
2019-02-09T08:43:28.513Z,1000.34
2019-02-09T08:44:28.490Z,1000.49
2019-02-09T08:45:28.468Z,1000.45
2019-02-09T08:46:28.456Z,1000.39
2019-02-09T08:47:28.449Z,1000.44
2019-02-09T08:48:28.457Z,1000.44
2019-02-09T08:49:28.424Z,1000.46
2019-02-09T08:50:28.413Z,1000.44
2019-02-09T08:51:28.404Z,1000.53
2019-02-09T08:52:28.391Z,1000.51
2019-02-09T08:53:28.403Z,1000.52
2019-02-09T08:54:28.368Z,1000.52
2019-02-09T08:55:28.360Z,1000.58
2019-02-09T08:56:28.345Z,1000.50
2019-02-09T08:57:28.335Z,1000.43
2019-02-09T08:58:28.325Z,1000.51
2019-02-09T08:59:28.335Z,1000.53
2019-02-09T09:00:28.302Z,1000.56
2019-02-09T09:01:28.290Z,1000.59
2019-02-09T09:02:28.279Z,1000.61
2019-02-09T09:03:28.271Z,1000.55
2019-02-09T09:04:28.284Z,1000.55
2019-02-09T09:05:28.246Z,1000.69
2019-02-09T09:06:28.237Z,1000.54
2019-02-09T09:07:28.224Z,1000.56
2019-02-09T09:08:28.214Z,1000.62
2019-02-09T09:09:28.224Z,1000.53
2019-02-09T09:10:28.189Z,1000.55
2019-02-09T09:11:28.180Z,1000.58
2019-02-09T09:12:28.167Z,1000.71
2019-02-09T09:13:28.156Z,1000.62
2019-02-09T09:14:28.169Z,1000.60
2019-02-09T09:15:28.134Z,1000.64
2019-02-09T09:16:28.128Z,1000.62
2019-02-09T09:17:28.111Z,1000.61
2019-02-09T09:18:28.102Z,1000.65
2019-02-09T09:19:28.113Z,1000.65
2019-02-09T09:20:28.078Z,1000.64
2019-02-09T09:21:28.067Z,1000.62
2019-02-09T09:22:28.070Z,1000.73
2019-02-09T09:23:28.045Z,1000.70
2019-02-09T09:24:28.058Z,1000.67
2019-02-09T09:25:28.024Z,1000.72
2019-02-09T09:26:28.017Z,1000.67
2019-02-09T09:27:28.001Z,1000.75
2019-02-09T09:28:27.991Z,1000.78
2019-02-09T09:29:28.003Z,1000.73
2019-02-09T09:30:27.967Z,1000.79
2019-02-09T09:31:27.956Z,1000.80
2019-02-09T09:32:28.814Z,1000.81
2019-02-09T09:33:27.935Z,1000.80
2019-02-09T09:34:27.946Z,1000.80
2019-02-09T09:35:27.913Z,1000.80
2019-02-09T09:36:27.900Z,1000.78
2019-02-09T09:37:27.890Z,1000.80
2019-02-09T09:38:27.879Z,1000.79
2019-02-09T09:39:27.892Z,1000.83
2019-02-09T09:40:27.855Z,1000.81
2019-02-09T09:41:27.851Z,1000.74
2019-02-09T09:42:27.832Z,1000.82
2019-02-09T09:43:27.824Z,1000.78
2019-02-09T09:44:27.814Z,1000.94
2019-02-09T09:45:27.824Z,1000.85
2019-02-09T09:46:27.789Z,1000.87
2019-02-09T09:47:27.777Z,1000.88
2019-02-09T09:48:27.766Z,1000.86
2019-02-09T09:49:27.759Z,1000.82
2019-02-09T09:50:27.772Z,1000.82
2019-02-09T09:51:27.738Z,1000.77
2019-02-09T09:52:27.724Z,1000.86
2019-02-09T09:53:27.712Z,1000.78
2019-02-09T09:54:27.699Z,1000.85
2019-02-09T09:55:27.713Z,1000.81
2019-02-09T09:56:27.680Z,1001.08
2019-02-09T09:57:27.666Z,1000.84
2019-02-09T09:58:27.655Z,1000.91
2019-02-09T09:59:27.644Z,1000.98
2019-02-09T10:00:27.657Z,1001.03
2019-02-09T10:01:27.624Z,1000.90
2019-02-09T10:02:27.612Z,1000.94
2019-02-09T10:03:27.599Z,1000.93
2019-02-09T10:04:27.587Z,1000.90
2019-02-09T10:05:27.601Z,1000.97
2019-02-09T10:06:27.568Z,1000.94
2019-02-09T10:07:27.558Z,1000.85
2019-02-09T10:08:27.544Z,1000.95
2019-02-09T10:09:27.533Z,1001.02
2019-02-09T10:10:27.548Z,1000.92
2019-02-09T10:11:27.510Z,1000.95
2019-02-09T10:12:27.501Z,1001.04
2019-02-09T10:13:27.488Z,1000.99
2019-02-09T10:14:27.478Z,1001.01
2019-02-09T10:15:27.488Z,1000.92
2019-02-09T10:16:27.454Z,1001.05
2019-02-09T10:17:27.444Z,1000.98
2019-02-09T10:18:27.432Z,1001.04
2019-02-09T10:19:27.421Z,1001.08
2019-02-09T10:20:27.436Z,1001.01
2019-02-09T10:21:27.400Z,1001.01
2019-02-09T10:22:27.388Z,1001.03
2019-02-09T10:23:27.376Z,1001.10
2019-02-09T10:24:27.364Z,1001.16
2019-02-09T10:25:27.378Z,1001.24
2019-02-09T10:26:27.344Z,1001.27
2019-02-09T10:27:27.334Z,1001.23
2019-02-09T10:28:27.323Z,1001.19
2019-02-09T10:29:27.309Z,1001.21
2019-02-09T10:30:27.322Z,1001.14
2019-02-09T10:31:27.287Z,1001.19
2019-02-09T10:32:27.276Z,1001.45
2019-02-09T10:33:27.276Z,1001.19
2019-02-09T10:34:27.253Z,1001.28
2019-02-09T10:35:27.268Z,1001.18
2019-02-09T10:36:27.231Z,1001.18
2019-02-09T10:37:27.229Z,1001.27
2019-02-09T10:38:27.208Z,1001.42
2019-02-09T10:39:27.198Z,1001.35
2019-02-09T10:40:27.210Z,1001.38
2019-02-09T10:41:27.177Z,1001.30
2019-02-09T10:42:27.164Z,1001.17
2019-02-09T10:43:27.152Z,1001.42
2019-02-09T10:44:27.142Z,1001.25
2019-02-09T10:45:27.158Z,1001.32
2019-02-09T10:46:27.121Z,1001.25
2019-02-09T10:47:27.108Z,1001.36
2019-02-09T10:48:27.098Z,1001.30
2019-02-09T10:49:27.087Z,1001.29
2019-02-09T10:50:27.099Z,1001.33
2019-02-09T10:51:27.065Z,1001.46
2019-02-09T10:52:27.055Z,1001.46
2019-02-09T10:53:27.041Z,1001.42
2019-02-09T10:54:27.030Z,1001.40
2019-02-09T10:55:27.044Z,1001.42
2019-02-09T10:56:27.011Z,1001.36
2019-02-09T10:57:26.999Z,1001.40
2019-02-09T10:58:26.985Z,1001.25
2019-02-09T10:59:26.975Z,1001.41
2019-02-09T11:00:26.988Z,1001.50
2019-02-09T11:01:26.973Z,1001.40
2019-02-09T11:02:26.941Z,1001.34
2019-02-09T11:03:26.931Z,1001.41
2019-02-09T11:04:26.924Z,1001.38
2019-02-09T11:05:26.932Z,1001.46
2019-02-09T11:06:26.896Z,1001.57
2019-02-09T11:07:26.886Z,1001.32
2019-02-09T11:08:26.874Z,1001.36
2019-02-09T11:09:26.862Z,1001.40
2019-02-09T11:10:26.855Z,1001.27
2019-02-09T11:11:26.863Z,1001.35
2019-02-09T11:12:26.829Z,1001.32
2019-02-09T11:13:26.822Z,1001.29
2019-02-09T11:14:26.807Z,1001.25
2019-02-09T11:15:26.800Z,1001.16
2019-02-09T11:16:26.811Z,1001.50
2019-02-09T11:17:26.774Z,1001.26
2019-02-09T11:18:26.763Z,1001.31
2019-02-09T11:19:26.750Z,1001.29
2019-02-09T11:20:26.742Z,1001.17
2019-02-09T11:21:26.753Z,1001.22
2019-02-09T11:22:26.719Z,1001.27
2019-02-09T11:23:26.706Z,1001.27
2019-02-09T11:24:26.700Z,1001.28
2019-02-09T11:25:26.688Z,1001.34
2019-02-09T11:26:26.697Z,1001.27
2019-02-09T11:27:26.675Z,1001.34
2019-02-09T11:28:26.650Z,1001.26
2019-02-09T11:29:26.639Z,1001.23
2019-02-09T11:30:26.632Z,1001.31
2019-02-09T11:31:26.640Z,1001.21
2019-02-09T11:32:26.606Z,1001.21
2019-02-09T11:33:26.595Z,1001.19
2019-02-09T11:34:26.587Z,1001.28
2019-02-09T11:35:26.572Z,1001.34
2019-02-09T11:36:26.587Z,1001.21
2019-02-09T11:37:26.554Z,1001.14
2019-02-09T11:38:26.541Z,1001.16
2019-02-09T11:39:26.532Z,1001.11
2019-02-09T11:40:26.529Z,1001.09
2019-02-09T11:41:26.529Z,1001.12
2019-02-09T11:42:26.521Z,1001.18
2019-02-09T11:43:26.482Z,1001.24
2019-02-09T11:44:26.473Z,1001.02
2019-02-09T11:45:26.461Z,1001.23
2019-02-09T11:46:26.480Z,1001.31
2019-02-09T11:47:26.438Z,1001.21
2019-02-09T11:48:26.427Z,1001.21
2019-02-09T11:49:26.417Z,1001.28
2019-02-09T11:50:26.406Z,1001.17
2019-02-09T11:51:26.418Z,1001.17
2019-02-09T11:52:26.383Z,1001.11
2019-02-09T11:53:26.371Z,1001.14
2019-02-09T11:54:26.361Z,1001.16
2019-02-09T11:55:26.351Z,1001.15
2019-02-09T11:56:26.361Z,1001.06
2019-02-09T11:57:26.327Z,1001.14
2019-02-09T11:58:26.316Z,1001.14
2019-02-09T11:59:26.305Z,1001.23
2019-02-09T12:00:26.293Z,1001.13
2019-02-09T12:01:26.307Z,1001.35
2019-02-09T12:02:26.281Z,1001.20
2019-02-09T12:03:26.259Z,1001.21
2019-02-09T12:04:26.249Z,1001.11
2019-02-09T12:05:26.238Z,1001.17
2019-02-09T12:06:26.251Z,1001.18
2019-02-09T12:07:26.216Z,1001.24
2019-02-09T12:08:26.208Z,1001.14
2019-02-09T12:09:26.193Z,1001.16
2019-02-09T12:10:26.182Z,1001.19
2019-02-09T12:11:26.194Z,1001.14
2019-02-09T12:12:26.160Z,1001.18
2019-02-09T12:13:26.148Z,1001.14
2019-02-09T12:14:26.136Z,1001.13
2019-02-09T12:15:26.125Z,1001.11
2019-02-09T12:16:26.137Z,1001.04
2019-02-09T12:17:26.104Z,1000.98
2019-02-09T12:18:26.092Z,1001.02
2019-02-09T12:19:26.088Z,1000.98
2019-02-09T12:20:26.073Z,1001.12